createdAt,value
2022-08-03T00:00:58.935Z,0.00
2022-08-03T00:01:58.880Z,0.00
2022-08-03T00:02:58.944Z,0.00
2022-08-03T00:03:58.858Z,0.00
2022-08-03T00:04:58.989Z,0.00
2022-08-03T00:06:04.635Z,0.00
2022-08-03T00:06:59.807Z,0.00
2022-08-03T00:07:58.790Z,0.00
2022-08-03T00:08:58.788Z,0.00
2022-08-03T00:09:58.768Z,0.00
2022-08-03T00:10:58.760Z,0.00
2022-08-03T00:11:58.769Z,0.00
2022-08-03T00:12:58.811Z,0.00
2022-08-03T00:13:58.761Z,0.00
2022-08-03T00:14:58.728Z,0.00
2022-08-03T00:15:58.740Z,0.00
2022-08-03T00:16:58.737Z,0.00
2022-08-03T00:17:58.728Z,0.00
2022-08-03T00:18:58.709Z,0.00
2022-08-03T00:19:58.678Z,0.00
2022-08-03T00:20:58.672Z,0.00
2022-08-03T00:21:58.679Z,0.00
2022-08-03T00:22:58.683Z,0.00
2022-08-03T00:23:58.631Z,0.00
2022-08-03T00:24:58.638Z,0.00
2022-08-03T00:25:58.619Z,0.00
2022-08-03T00:26:58.643Z,0.00
2022-08-03T00:27:58.609Z,0.00
2022-08-03T00:28:58.580Z,0.00
2022-08-03T00:30:00.314Z,0.00
2022-08-03T00:30:58.580Z,0.00
2022-08-03T00:31:59.602Z,0.00
2022-08-03T00:32:58.530Z,0.00
2022-08-03T00:34:02.234Z,0.00
2022-08-03T00:34:59.232Z,0.00
2022-08-03T00:35:58.489Z,0.00
2022-08-03T00:36:58.494Z,0.00
2022-08-03T00:37:58.480Z,0.00
2022-08-03T00:38:58.485Z,0.00
2022-08-03T00:39:59.830Z,0.00
2022-08-03T00:40:58.433Z,0.00
2022-08-03T00:41:58.437Z,0.00
2022-08-03T00:42:58.473Z,0.00
2022-08-03T00:43:58.403Z,0.00
2022-08-03T00:44:58.394Z,0.00
2022-08-03T00:45:58.381Z,0.00
2022-08-03T00:46:58.384Z,0.00
2022-08-03T00:47:58.391Z,0.00
2022-08-03T00:48:58.420Z,0.00
2022-08-03T00:49:58.432Z,0.00
2022-08-03T00:50:58.396Z,0.00
2022-08-03T00:51:58.353Z,0.00
2022-08-03T00:52:58.314Z,0.00
2022-08-03T00:53:58.293Z,0.00
2022-08-03T00:54:58.302Z,0.00
2022-08-03T00:55:58.293Z,0.00
2022-08-03T00:57:00.301Z,0.00
2022-08-03T00:57:58.362Z,0.00
2022-08-03T00:58:58.232Z,0.00
2022-08-03T00:59:58.232Z,0.00
2022-08-03T01:00:58.286Z,0.00
2022-08-03T01:01:58.233Z,0.00
2022-08-03T01:02:58.222Z,0.00
2022-08-03T01:03:58.173Z,0.00
2022-08-03T01:04:58.183Z,0.00
2022-08-03T01:05:58.193Z,0.00
2022-08-03T01:06:58.193Z,0.00
2022-08-03T01:07:58.245Z,0.00
2022-08-03T01:08:58.554Z,0.00
2022-08-03T01:09:58.139Z,0.00
2022-08-03T01:10:58.083Z,0.00
2022-08-03T01:12:01.016Z,0.00
2022-08-03T01:12:58.113Z,0.00
2022-08-03T01:14:04.611Z,0.00
2022-08-03T01:14:59.064Z,0.00
2022-08-03T01:15:58.054Z,0.00
2022-08-03T01:16:58.063Z,0.00
2022-08-03T01:17:58.163Z,0.00
2022-08-03T01:18:58.498Z,0.00
2022-08-03T01:19:58.013Z,0.00
2022-08-03T01:20:58.100Z,0.00
2022-08-03T01:21:58.005Z,0.00
2022-08-03T01:22:58.015Z,0.00
2022-08-03T01:23:58.007Z,0.00
2022-08-03T01:24:57.975Z,0.00
2022-08-03T01:25:57.935Z,0.00
2022-08-03T01:26:57.943Z,0.00
2022-08-03T01:27:57.947Z,0.00
2022-08-03T01:28:57.926Z,0.00
2022-08-03T01:29:57.895Z,0.00
2022-08-03T01:30:57.905Z,0.00
2022-08-03T01:32:58.410Z,0.00
2022-08-03T01:33:01.867Z,0.00
2022-08-03T01:33:57.872Z,0.00
2022-08-03T01:34:57.855Z,0.00
2022-08-03T01:35:57.854Z,0.00
2022-08-03T01:36:57.815Z,0.00
2022-08-03T01:37:57.814Z,0.00
2022-08-03T01:38:57.822Z,0.00
2022-08-03T01:39:57.828Z,0.00
2022-08-03T01:40:57.798Z,0.00
2022-08-03T01:41:57.775Z,0.00
2022-08-03T01:42:57.782Z,0.00
2022-08-03T01:44:29.760Z,0.00
2022-08-03T01:44:58.745Z,0.00
2022-08-03T01:45:57.735Z,0.00
2022-08-03T01:46:57.735Z,0.00
2022-08-03T01:47:57.696Z,0.00
2022-08-03T01:48:57.753Z,0.00
2022-08-03T01:49:57.686Z,0.00
2022-08-03T01:50:57.687Z,0.00
2022-08-03T01:52:02.919Z,0.00
2022-08-03T01:52:58.665Z,0.00
2022-08-03T01:53:57.655Z,0.00
2022-08-03T01:54:57.635Z,0.00
2022-08-03T01:55:57.627Z,0.00
2022-08-03T01:56:57.634Z,0.00
2022-08-03T01:58:05.785Z,0.00
2022-08-03T01:58:58.587Z,0.00
2022-08-03T01:59:57.575Z,0.00
2022-08-03T02:00:57.615Z,0.00
2022-08-03T02:02:28.326Z,0.00
2022-08-03T02:02:58.565Z,0.00
2022-08-03T02:04:00.485Z,0.00
2022-08-03T02:04:57.546Z,0.00
2022-08-03T02:06:40.958Z,0.00
2022-08-03T02:07:01.944Z,0.00
2022-08-03T02:07:57.493Z,0.00
2022-08-03T02:08:57.509Z,0.00
2022-08-03T02:09:57.469Z,0.00
2022-08-03T02:10:57.496Z,0.00
2022-08-03T02:11:57.448Z,0.00
2022-08-03T02:12:57.445Z,0.00
2022-08-03T02:13:57.420Z,0.00
2022-08-03T02:14:57.397Z,0.00
2022-08-03T02:15:57.397Z,0.00
2022-08-03T02:16:57.387Z,0.00
2022-08-03T02:17:57.380Z,0.00
2022-08-03T02:18:57.367Z,0.00
2022-08-03T02:19:57.355Z,0.00
2022-08-03T02:20:57.347Z,0.00
2022-08-03T02:22:01.125Z,0.00
2022-08-03T02:22:57.330Z,0.00
2022-08-03T02:23:57.326Z,0.00
2022-08-03T02:24:57.307Z,0.00
2022-08-03T02:25:57.296Z,0.00
2022-08-03T02:26:57.290Z,0.00
2022-08-03T02:27:57.537Z,0.00
2022-08-03T02:28:57.235Z,0.00
2022-08-03T02:29:57.227Z,0.00
2022-08-03T02:30:57.227Z,0.00
2022-08-03T02:31:57.238Z,0.00
2022-08-03T02:32:57.227Z,0.00
2022-08-03T02:33:57.218Z,0.00
2022-08-03T02:34:57.206Z,0.00
2022-08-03T02:35:57.169Z,0.00
2022-08-03T02:36:57.170Z,0.00
2022-08-03T02:37:57.177Z,0.00
2022-08-03T02:38:57.189Z,0.00
2022-08-03T02:39:57.129Z,0.00
2022-08-03T02:40:57.136Z,0.00
2022-08-03T02:41:57.110Z,0.00
2022-08-03T02:42:57.648Z,0.00
2022-08-03T02:44:06.044Z,0.00
2022-08-03T02:44:58.068Z,0.00
2022-08-03T02:45:57.048Z,0.00
2022-08-03T02:46:57.072Z,0.00
2022-08-03T02:47:57.056Z,0.00
2022-08-03T02:48:57.093Z,0.00
2022-08-03T02:49:57.094Z,0.00
2022-08-03T02:50:57.041Z,0.00
2022-08-03T02:51:57.005Z,0.00
2022-08-03T02:52:57.011Z,0.00
2022-08-03T02:53:57.004Z,0.00
2022-08-03T02:54:56.983Z,0.00
2022-08-03T02:55:56.949Z,0.00
2022-08-03T02:56:56.939Z,0.00
2022-08-03T02:57:57.138Z,0.00
2022-08-03T02:58:56.923Z,0.00
2022-08-03T02:59:56.928Z,0.00
2022-08-03T03:00:56.974Z,0.00
2022-08-03T03:01:56.870Z,0.00
2022-08-03T03:02:56.852Z,0.00
2022-08-03T03:03:56.849Z,0.00
2022-08-03T03:05:53.266Z,0.00
2022-08-03T03:05:57.972Z,0.00
2022-08-03T03:06:56.819Z,0.00
2022-08-03T03:07:56.838Z,0.00
2022-08-03T03:08:59.797Z,0.00
2022-08-03T03:09:56.799Z,0.00
2022-08-03T03:10:56.811Z,0.00
2022-08-03T03:11:56.770Z,0.00
2022-08-03T03:12:56.858Z,0.00
2022-08-03T03:13:56.749Z,0.00
2022-08-03T03:14:56.769Z,0.00
2022-08-03T03:15:56.740Z,0.00
2022-08-03T03:16:57.856Z,0.00
2022-08-03T03:17:56.690Z,0.00
2022-08-03T03:18:56.682Z,0.00
2022-08-03T03:19:56.681Z,0.00
2022-08-03T03:20:56.680Z,0.00
2022-08-03T03:21:56.661Z,0.00
2022-08-03T03:22:56.650Z,0.00
2022-08-03T03:23:56.660Z,0.00
2022-08-03T03:24:56.641Z,0.00
2022-08-03T03:25:56.621Z,0.00
2022-08-03T03:26:56.610Z,0.00
2022-08-03T03:27:56.613Z,0.00
2022-08-03T03:28:56.582Z,0.00
2022-08-03T03:29:56.602Z,0.00
2022-08-03T03:30:56.563Z,0.00
2022-08-03T03:31:56.551Z,0.00
2022-08-03T03:32:56.520Z,0.00
2022-08-03T03:33:56.509Z,0.00
2022-08-03T03:34:56.521Z,0.00
2022-08-03T03:35:56.489Z,0.00
2022-08-03T03:36:56.482Z,0.00
2022-08-03T03:37:56.451Z,0.00
2022-08-03T03:38:56.481Z,0.00
2022-08-03T03:39:56.470Z,4.00
2022-08-03T03:40:56.429Z,0.00
2022-08-03T03:41:56.419Z,0.00
2022-08-03T03:42:56.421Z,0.00
2022-08-03T03:43:56.392Z,0.00
2022-08-03T03:44:56.402Z,4.00
2022-08-03T03:45:56.371Z,4.00
2022-08-03T03:46:56.382Z,0.00
2022-08-03T03:47:56.351Z,0.00
2022-08-03T03:48:56.367Z,4.00
2022-08-03T03:49:56.354Z,4.00
2022-08-03T03:50:56.341Z,4.00
2022-08-03T03:51:56.333Z,0.00
2022-08-03T03:52:56.339Z,4.00
2022-08-03T03:53:56.322Z,4.00
2022-08-03T03:55:00.682Z,4.00
2022-08-03T03:55:58.926Z,8.00
2022-08-03T03:56:57.278Z,4.00
2022-08-03T03:57:56.260Z,4.00
2022-08-03T03:58:56.247Z,8.00
2022-08-03T03:59:56.272Z,4.00
2022-08-03T04:00:56.269Z,4.00
2022-08-03T04:01:59.112Z,8.00
2022-08-03T04:02:56.184Z,8.00
2022-08-03T04:03:56.171Z,8.00
2022-08-03T04:04:56.194Z,8.00
2022-08-03T04:05:56.162Z,8.00
2022-08-03T04:06:56.163Z,8.00
2022-08-03T04:07:56.176Z,8.00
2022-08-03T04:08:56.142Z,12.00
2022-08-03T04:09:56.123Z,8.00
2022-08-03T04:10:56.102Z,12.00
2022-08-03T04:11:56.236Z,12.00
2022-08-03T04:12:56.084Z,12.00
2022-08-03T04:13:56.062Z,12.00
2022-08-03T04:14:57.062Z,12.00
2022-08-03T04:15:56.043Z,16.00
2022-08-03T04:16:56.260Z,12.00
2022-08-03T04:17:56.042Z,12.00
2022-08-03T04:18:56.001Z,16.00
2022-08-03T04:19:56.022Z,16.00
2022-08-03T04:20:56.028Z,16.00
2022-08-03T04:21:57.155Z,16.00
2022-08-03T04:22:55.965Z,16.00
2022-08-03T04:23:55.970Z,20.00
2022-08-03T04:24:55.957Z,20.00
2022-08-03T04:25:55.963Z,20.00
2022-08-03T04:26:55.935Z,20.00
2022-08-03T04:28:08.125Z,20.00
2022-08-03T04:28:56.914Z,20.00
2022-08-03T04:29:55.921Z,20.00
2022-08-03T04:30:55.897Z,20.00
2022-08-03T04:31:55.887Z,20.00
2022-08-03T04:32:55.864Z,24.00
2022-08-03T04:33:55.843Z,24.00
2022-08-03T04:34:55.837Z,24.00
2022-08-03T04:36:01.341Z,28.00
2022-08-03T04:36:56.797Z,24.00
2022-08-03T04:37:55.795Z,28.00
2022-08-03T04:38:55.795Z,24.00
2022-08-03T04:39:57.673Z,28.00
2022-08-03T04:40:55.787Z,28.00
2022-08-03T04:42:06.908Z,28.00
2022-08-03T04:42:56.754Z,28.00
2022-08-03T04:43:55.750Z,32.00
2022-08-03T04:45:00.823Z,28.00
2022-08-03T04:45:56.735Z,32.00
2022-08-03T04:46:55.714Z,28.00
2022-08-03T04:47:55.757Z,32.00
2022-08-03T04:48:55.775Z,32.00
2022-08-03T04:49:55.734Z,32.00
2022-08-03T04:50:55.716Z,36.00
2022-08-03T04:51:55.689Z,32.00
2022-08-03T04:52:55.659Z,36.00
2022-08-03T04:53:55.644Z,32.00
2022-08-03T04:54:55.618Z,36.00
2022-08-03T04:55:55.642Z,36.00
2022-08-03T04:56:55.607Z,36.00
2022-08-03T04:57:55.618Z,36.00
2022-08-03T04:58:55.608Z,36.00
2022-08-03T05:00:02.203Z,40.00
2022-08-03T05:00:56.593Z,36.00
2022-08-03T05:01:55.660Z,40.00
2022-08-03T05:02:55.615Z,40.00
2022-08-03T05:03:55.519Z,40.00
2022-08-03T05:04:55.525Z,40.00
2022-08-03T05:06:09.538Z,40.00
2022-08-03T05:06:56.476Z,40.00
2022-08-03T05:07:55.507Z,40.00
2022-08-03T05:08:55.457Z,44.00
2022-08-03T05:10:01.685Z,40.00
2022-08-03T05:10:59.059Z,44.00
2022-08-03T05:11:55.447Z,44.00
2022-08-03T05:12:55.441Z,44.00
2022-08-03T05:13:55.417Z,44.00
2022-08-03T05:14:55.397Z,48.00
2022-08-03T05:15:55.405Z,52.00
2022-08-03T05:16:55.389Z,48.00
2022-08-03T05:17:55.390Z,52.00
2022-08-03T05:18:55.390Z,52.00
2022-08-03T05:19:55.408Z,48.00
2022-08-03T05:20:55.338Z,52.00
2022-08-03T05:21:55.316Z,52.00
2022-08-03T05:22:55.290Z,52.00
2022-08-03T05:23:55.315Z,56.00
2022-08-03T05:24:55.336Z,56.00
2022-08-03T05:25:55.277Z,56.00
2022-08-03T05:26:55.263Z,56.00
2022-08-03T05:27:55.552Z,64.00
2022-08-03T05:28:55.209Z,76.00
2022-08-03T05:29:55.200Z,72.00
2022-08-03T05:30:55.198Z,72.00
2022-08-03T05:31:55.211Z,76.00
2022-08-03T05:32:55.184Z,64.00
2022-08-03T05:33:55.158Z,68.00
2022-08-03T05:34:55.158Z,68.00
2022-08-03T05:36:01.622Z,68.00
2022-08-03T05:36:56.137Z,64.00
2022-08-03T05:37:55.134Z,100.00
2022-08-03T05:38:56.783Z,116.00
2022-08-03T05:39:55.131Z,116.00
2022-08-03T05:40:57.672Z,124.00
2022-08-03T05:41:56.086Z,112.00
2022-08-03T05:42:55.264Z,116.00
2022-08-03T05:43:55.069Z,96.00
2022-08-03T05:44:55.030Z,88.00
2022-08-03T05:46:11.438Z,84.00
2022-08-03T05:46:56.520Z,124.00
2022-08-03T05:47:55.048Z,164.00
2022-08-03T05:48:55.097Z,156.00
2022-08-03T05:49:55.010Z,132.00
2022-08-03T05:50:55.010Z,144.00
2022-08-03T05:51:59.945Z,152.00
2022-08-03T05:52:55.979Z,168.00
2022-08-03T05:53:54.955Z,224.00
2022-08-03T05:54:56.012Z,248.00
2022-08-03T05:55:59.228Z,252.00
2022-08-03T05:56:55.921Z,256.00
2022-08-03T05:57:55.294Z,168.00
2022-08-03T05:58:54.885Z,164.00
2022-08-03T05:59:57.764Z,152.00
2022-08-03T06:00:54.892Z,124.00
2022-08-03T06:01:54.910Z,180.00
2022-08-03T06:02:54.860Z,120.00
2022-08-03T06:03:54.845Z,176.00
2022-08-03T06:04:54.835Z,192.00
2022-08-03T06:05:59.975Z,184.00
2022-08-03T06:06:55.926Z,204.00
2022-08-03T06:07:54.811Z,216.00
2022-08-03T06:08:54.831Z,264.00
2022-08-03T06:10:35.310Z,276.00
2022-08-03T06:10:55.991Z,288.00
2022-08-03T06:11:54.794Z,276.00
2022-08-03T06:12:54.788Z,292.00
2022-08-03T06:13:54.835Z,304.00
2022-08-03T06:14:54.793Z,308.00
2022-08-03T06:15:54.894Z,312.00
2022-08-03T06:16:54.943Z,296.00
2022-08-03T06:17:57.631Z,300.00
2022-08-03T06:18:55.793Z,280.00
2022-08-03T06:19:54.694Z,244.00
2022-08-03T06:20:55.117Z,228.00
2022-08-03T06:21:54.653Z,220.00
2022-08-03T06:23:00.189Z,276.00
2022-08-03T06:23:55.768Z,300.00
2022-08-03T06:24:54.743Z,312.00
2022-08-03T06:25:54.595Z,324.00
2022-08-03T06:26:54.576Z,332.00
2022-08-03T06:27:54.633Z,344.00
2022-08-03T06:28:54.942Z,360.00
2022-08-03T06:29:54.562Z,368.00
2022-08-03T06:30:54.616Z,380.00
2022-08-03T06:31:54.585Z,348.00
2022-08-03T06:32:54.591Z,384.00
2022-08-03T06:34:33.714Z,388.00
2022-08-03T06:34:55.521Z,396.00
2022-08-03T06:35:54.609Z,400.00
2022-08-03T06:36:57.433Z,408.00
2022-08-03T06:37:55.494Z,412.00
2022-08-03T06:38:54.466Z,412.00
2022-08-03T06:39:54.442Z,412.00
2022-08-03T06:40:54.416Z,408.00
2022-08-03T06:41:54.408Z,408.00
2022-08-03T06:42:54.415Z,432.00
2022-08-03T06:44:03.782Z,436.00
2022-08-03T06:44:55.387Z,440.00
2022-08-03T06:45:54.441Z,448.00
2022-08-03T06:46:54.404Z,452.00
2022-08-03T06:47:54.358Z,452.00
2022-08-03T06:48:54.406Z,464.00
2022-08-03T06:50:16.497Z,452.00
2022-08-03T06:50:55.329Z,468.00
2022-08-03T06:52:06.209Z,468.00
2022-08-03T06:52:55.339Z,476.00
2022-08-03T06:53:54.340Z,492.00
2022-08-03T06:54:54.308Z,376.00
2022-08-03T06:55:55.158Z,336.00
2022-08-03T06:56:54.298Z,308.00
2022-08-03T06:57:54.279Z,292.00
2022-08-03T06:58:55.288Z,408.00
2022-08-03T07:00:08.707Z,460.00
2022-08-03T07:00:55.234Z,524.00
2022-08-03T07:01:54.600Z,524.00
2022-08-03T07:02:58.118Z,532.00
2022-08-03T07:03:54.181Z,536.00
2022-08-03T07:04:54.180Z,540.00
2022-08-03T07:05:54.161Z,548.00
2022-08-03T07:06:54.130Z,552.00
2022-08-03T07:07:54.191Z,556.00
2022-08-03T07:08:58.979Z,560.00
2022-08-03T07:09:56.875Z,520.00
2022-08-03T07:10:54.111Z,548.00
2022-08-03T07:11:54.138Z,568.00
2022-08-03T07:12:55.698Z,568.00
2022-08-03T07:13:54.282Z,420.00
2022-08-03T07:14:58.220Z,420.00
2022-08-03T07:15:56.321Z,464.00
2022-08-03T07:16:54.123Z,564.00
2022-08-03T07:17:54.103Z,524.00
2022-08-03T07:18:54.094Z,524.00
2022-08-03T07:19:54.089Z,408.00
2022-08-03T07:20:54.103Z,476.00
2022-08-03T07:21:54.033Z,556.00
2022-08-03T07:22:54.063Z,612.00
2022-08-03T07:23:54.088Z,620.00
2022-08-03T07:24:54.004Z,616.00
2022-08-03T07:25:54.004Z,620.00
2022-08-03T07:26:54.044Z,632.00
2022-08-03T07:27:54.014Z,636.00
2022-08-03T07:28:53.943Z,620.00
2022-08-03T07:29:54.063Z,644.00
2022-08-03T07:30:53.917Z,648.00
2022-08-03T07:31:53.918Z,652.00
2022-08-03T07:32:53.884Z,656.00
2022-08-03T07:33:53.937Z,660.00
2022-08-03T07:34:59.898Z,664.00
2022-08-03T07:35:54.893Z,668.00
2022-08-03T07:36:53.827Z,672.00
2022-08-03T07:37:54.488Z,636.00
2022-08-03T07:38:53.827Z,680.00
2022-08-03T07:39:53.821Z,664.00
2022-08-03T07:40:53.839Z,556.00
2022-08-03T07:41:53.806Z,520.00
2022-08-03T07:42:53.839Z,548.00
2022-08-03T07:43:53.767Z,588.00
2022-08-03T07:44:53.767Z,672.00
2022-08-03T07:45:53.817Z,700.00
2022-08-03T07:46:53.757Z,700.00
2022-08-03T07:47:54.245Z,704.00
2022-08-03T07:48:53.731Z,708.00
2022-08-03T07:49:54.085Z,712.00
2022-08-03T07:50:54.090Z,720.00
2022-08-03T07:51:53.680Z,724.00
2022-08-03T07:52:53.789Z,732.00
2022-08-03T07:53:53.690Z,736.00
2022-08-03T07:54:53.661Z,728.00
2022-08-03T07:55:53.690Z,748.00
2022-08-03T07:56:53.620Z,752.00
2022-08-03T07:57:53.659Z,680.00
2022-08-03T07:58:53.662Z,720.00
2022-08-03T08:00:01.897Z,644.00
2022-08-03T08:00:54.649Z,516.00
2022-08-03T08:01:53.630Z,564.00
2022-08-03T08:02:53.636Z,688.00
2022-08-03T08:03:53.870Z,732.00
2022-08-03T08:04:53.633Z,780.00
2022-08-03T08:05:53.550Z,788.00
2022-08-03T08:06:53.605Z,792.00
2022-08-03T08:07:53.523Z,792.00
2022-08-03T08:08:53.620Z,804.00
2022-08-03T08:09:53.479Z,816.00
2022-08-03T08:10:58.294Z,792.00
2022-08-03T08:11:54.460Z,600.00
2022-08-03T08:12:53.493Z,724.00
2022-08-03T08:13:53.433Z,732.00
2022-08-03T08:14:53.422Z,696.00
2022-08-03T08:15:53.444Z,744.00
2022-08-03T08:16:53.431Z,756.00
2022-08-03T08:17:53.444Z,700.00
2022-08-03T08:18:53.432Z,732.00
2022-08-03T08:19:53.611Z,772.00
2022-08-03T08:20:53.392Z,744.00
2022-08-03T08:22:02.104Z,860.00
2022-08-03T08:22:54.377Z,852.00
2022-08-03T08:23:57.794Z,872.00
2022-08-03T08:24:53.343Z,880.00
2022-08-03T08:25:53.326Z,896.00
2022-08-03T08:26:53.349Z,924.00
2022-08-03T08:28:29.927Z,836.00
2022-08-03T08:28:54.333Z,696.00
2022-08-03T08:29:55.766Z,540.00
2022-08-03T08:30:54.278Z,608.00
2022-08-03T08:31:53.275Z,660.00
2022-08-03T08:32:53.357Z,608.00
2022-08-03T08:34:08.734Z,768.00
2022-08-03T08:34:54.484Z,652.00
2022-08-03T08:35:53.305Z,524.00
2022-08-03T08:36:53.287Z,620.00
2022-08-03T08:37:53.225Z,416.00
2022-08-03T08:38:53.243Z,712.00
2022-08-03T08:39:53.189Z,632.00
2022-08-03T08:40:53.197Z,624.00
2022-08-03T08:41:53.454Z,648.00
2022-08-03T08:43:00.434Z,800.00
2022-08-03T08:43:59.841Z,856.00
2022-08-03T08:44:54.161Z,904.00
2022-08-03T08:45:53.189Z,960.00
2022-08-03T08:46:53.688Z,700.00
2022-08-03T08:47:55.765Z,996.00
2022-08-03T08:48:54.310Z,988.00
2022-08-03T08:50:08.905Z,928.00
2022-08-03T08:50:54.101Z,984.00
2022-08-03T08:52:00.852Z,860.00
2022-08-03T08:52:54.032Z,532.00
2022-08-03T08:53:53.041Z,932.00
2022-08-03T08:54:53.070Z,920.00
2022-08-03T08:55:58.255Z,796.00
2022-08-03T08:56:54.041Z,996.00
2022-08-03T08:57:53.139Z,884.00
2022-08-03T08:58:53.000Z,776.00
2022-08-03T08:59:57.172Z,800.00
2022-08-03T09:00:53.027Z,836.00
2022-08-03T09:01:52.946Z,860.00
2022-08-03T09:02:52.921Z,612.00
2022-08-03T09:03:52.922Z,844.00
2022-08-03T09:04:52.922Z,992.00
2022-08-03T09:05:55.918Z,1012.00
2022-08-03T09:07:17.758Z,980.00
2022-08-03T09:07:53.872Z,904.00
2022-08-03T09:08:52.902Z,832.00
2022-08-03T09:10:11.152Z,696.00
2022-08-03T09:10:53.889Z,760.00
2022-08-03T09:12:01.052Z,856.00
2022-08-03T09:12:53.896Z,800.00
2022-08-03T09:13:52.865Z,772.00
2022-08-03T09:15:14.829Z,856.00
2022-08-03T09:16:01.286Z,884.00
2022-08-03T09:16:53.832Z,944.00
2022-08-03T09:17:52.804Z,792.00
2022-08-03T09:18:52.827Z,884.00
2022-08-03T09:20:03.290Z,840.00
2022-08-03T09:20:53.775Z,896.00
2022-08-03T09:21:52.765Z,900.00
2022-08-03T09:22:52.808Z,856.00
2022-08-03T09:24:02.398Z,632.00
2022-08-03T09:25:14.759Z,884.00
2022-08-03T09:25:53.716Z,840.00
2022-08-03T09:26:53.795Z,484.00
2022-08-03T09:27:53.493Z,464.00
2022-08-03T09:29:01.275Z,956.00
2022-08-03T09:29:53.706Z,400.00
2022-08-03T09:30:52.677Z,556.00
2022-08-03T09:31:52.667Z,404.00
2022-08-03T09:32:52.629Z,460.00
2022-08-03T09:33:52.648Z,1096.00
2022-08-03T09:34:56.546Z,556.00
2022-08-03T09:35:54.840Z,932.00
2022-08-03T09:36:52.642Z,552.00
2022-08-03T09:38:12.466Z,928.00
2022-08-03T09:38:53.623Z,608.00
2022-08-03T09:39:52.627Z,544.00
2022-08-03T09:40:57.332Z,688.00
2022-08-03T09:41:53.583Z,620.00
2022-08-03T09:42:52.840Z,532.00
2022-08-03T09:43:52.529Z,872.00
2022-08-03T09:44:52.575Z,464.00
2022-08-03T09:45:52.499Z,692.00
2022-08-03T09:46:52.493Z,648.00
2022-08-03T09:47:52.468Z,716.00
2022-08-03T09:48:52.552Z,456.00
2022-08-03T09:49:52.474Z,516.00
2022-08-03T09:50:57.161Z,484.00
2022-08-03T09:52:33.873Z,452.00
2022-08-03T09:52:53.429Z,440.00
2022-08-03T09:53:59.495Z,480.00
2022-08-03T09:54:53.452Z,876.00
2022-08-03T09:56:36.494Z,608.00
2022-08-03T09:56:53.402Z,1204.00
2022-08-03T09:57:52.417Z,980.00
2022-08-03T09:58:52.384Z,1060.00
2022-08-03T10:00:03.088Z,760.00
2022-08-03T10:00:53.425Z,660.00
2022-08-03T10:01:52.374Z,696.00
2022-08-03T10:02:52.313Z,864.00
2022-08-03T10:04:04.379Z,664.00
2022-08-03T10:04:53.308Z,764.00
2022-08-03T10:05:56.055Z,1024.00
2022-08-03T10:06:53.275Z,524.00
2022-08-03T10:07:52.274Z,520.00
2022-08-03T10:08:52.300Z,804.00
2022-08-03T10:09:52.297Z,812.00
2022-08-03T10:10:52.336Z,536.00
2022-08-03T10:11:52.287Z,1048.00
2022-08-03T10:12:52.257Z,616.00
2022-08-03T10:13:52.204Z,640.00
2022-08-03T10:14:53.248Z,904.00
2022-08-03T10:16:22.134Z,704.00
2022-08-03T10:16:53.196Z,836.00
2022-08-03T10:17:52.204Z,948.00
2022-08-03T10:18:52.157Z,752.00
2022-08-03T10:19:52.180Z,1376.00
2022-08-03T10:20:52.148Z,1164.00
2022-08-03T10:21:52.107Z,1136.00
2022-08-03T10:22:52.115Z,1052.00
2022-08-03T10:23:52.110Z,732.00
2022-08-03T10:24:52.118Z,840.00
2022-08-03T10:25:52.098Z,1032.00
2022-08-03T10:26:52.109Z,1180.00
2022-08-03T10:27:52.109Z,1316.00
2022-08-03T10:28:52.073Z,1264.00
2022-08-03T10:29:52.056Z,988.00
2022-08-03T10:30:52.046Z,796.00
2022-08-03T10:31:57.819Z,1132.00
2022-08-03T10:32:53.002Z,1156.00
2022-08-03T10:33:53.136Z,1072.00
2022-08-03T10:34:52.000Z,992.00
2022-08-03T10:35:52.991Z,668.00
2022-08-03T10:36:51.994Z,1044.00
2022-08-03T10:37:56.984Z,1104.00
2022-08-03T10:38:53.509Z,1156.00
2022-08-03T10:39:51.983Z,1168.00
2022-08-03T10:40:57.164Z,1104.00
2022-08-03T10:41:52.961Z,1076.00
2022-08-03T10:42:51.963Z,476.00
2022-08-03T10:43:51.932Z,344.00
2022-08-03T10:44:51.935Z,668.00
2022-08-03T10:45:51.911Z,476.00
2022-08-03T10:46:51.922Z,656.00
2022-08-03T10:47:51.881Z,1012.00
2022-08-03T10:48:51.875Z,1128.00
2022-08-03T10:49:51.929Z,1296.00
2022-08-03T10:50:52.580Z,1048.00
2022-08-03T10:51:54.266Z,576.00
2022-08-03T10:52:51.824Z,568.00
2022-08-03T10:53:55.426Z,1316.00
2022-08-03T10:54:51.845Z,1204.00
2022-08-03T10:55:51.798Z,1136.00
2022-08-03T10:56:51.823Z,856.00
2022-08-03T10:57:52.442Z,1064.00
2022-08-03T10:58:57.077Z,1200.00
2022-08-03T10:59:52.795Z,1004.00
2022-08-03T11:00:51.806Z,1248.00
2022-08-03T11:01:58.509Z,812.00
2022-08-03T11:02:52.740Z,932.00
2022-08-03T11:03:51.726Z,1088.00
2022-08-03T11:04:51.746Z,864.00
2022-08-03T11:05:51.729Z,1136.00
2022-08-03T11:06:51.677Z,1108.00
2022-08-03T11:07:54.605Z,1268.00
2022-08-03T11:08:51.694Z,964.00
2022-08-03T11:09:51.689Z,956.00
2022-08-03T11:10:51.668Z,860.00
2022-08-03T11:11:51.739Z,708.00
2022-08-03T11:12:51.638Z,552.00
2022-08-03T11:13:51.708Z,1004.00
2022-08-03T11:14:51.828Z,984.00
2022-08-03T11:15:51.691Z,908.00
2022-08-03T11:16:51.649Z,856.00
2022-08-03T11:17:56.118Z,628.00
2022-08-03T11:18:52.543Z,728.00
2022-08-03T11:19:56.552Z,1148.00
2022-08-03T11:20:52.531Z,996.00
2022-08-03T11:21:51.503Z,912.00
2022-08-03T11:22:51.510Z,1020.00
2022-08-03T11:24:02.868Z,1120.00
2022-08-03T11:24:52.541Z,1016.00
2022-08-03T11:25:54.649Z,972.00
2022-08-03T11:26:51.495Z,1012.00
2022-08-03T11:27:51.481Z,944.00
2022-08-03T11:28:51.457Z,980.00
2022-08-03T11:29:51.431Z,1108.00
2022-08-03T11:30:51.466Z,1204.00
2022-08-03T11:31:51.988Z,1208.00
2022-08-03T11:32:51.404Z,1216.00
2022-08-03T11:33:51.430Z,508.00
2022-08-03T11:34:51.382Z,1124.00
2022-08-03T11:35:51.373Z,1152.00
2022-08-03T11:36:51.354Z,1268.00
2022-08-03T11:38:03.557Z,1124.00
2022-08-03T11:38:52.353Z,900.00
2022-08-03T11:39:51.342Z,944.00
2022-08-03T11:40:51.343Z,884.00
2022-08-03T11:41:51.344Z,648.00
2022-08-03T11:42:51.330Z,604.00
2022-08-03T11:43:51.326Z,568.00
2022-08-03T11:44:51.324Z,716.00
2022-08-03T11:45:51.316Z,616.00
2022-08-03T11:46:51.346Z,764.00
2022-08-03T11:47:51.624Z,640.00
2022-08-03T11:48:51.321Z,848.00
2022-08-03T11:49:51.266Z,1064.00
2022-08-03T11:50:51.526Z,916.00
2022-08-03T11:51:51.234Z,1096.00
2022-08-03T11:52:51.220Z,996.00
2022-08-03T11:53:51.274Z,916.00
2022-08-03T11:54:51.263Z,1232.00
2022-08-03T11:55:52.228Z,1032.00
2022-08-03T11:56:51.211Z,1308.00
2022-08-03T11:59:13.191Z,1296.00
2022-08-03T11:59:18.963Z,956.00
2022-08-03T11:59:52.158Z,1116.00
2022-08-03T12:00:51.178Z,1176.00
2022-08-03T12:01:51.166Z,600.00
2022-08-03T12:02:51.241Z,628.00
2022-08-03T12:03:51.157Z,808.00
2022-08-03T12:04:51.118Z,1132.00
2022-08-03T12:05:52.699Z,1224.00
2022-08-03T12:06:51.194Z,1292.00
2022-08-03T12:08:03.256Z,1256.00
2022-08-03T12:08:52.081Z,1240.00
2022-08-03T12:09:51.059Z,1256.00
2022-08-03T12:10:51.069Z,988.00
2022-08-03T12:11:51.105Z,1316.00
2022-08-03T12:12:52.083Z,1084.00
2022-08-03T12:14:44.046Z,632.00
2022-08-03T12:14:52.476Z,1140.00
2022-08-03T12:15:51.017Z,1012.00
2022-08-03T12:16:51.030Z,1072.00
2022-08-03T12:17:53.720Z,1244.00
2022-08-03T12:18:52.010Z,1216.00
2022-08-03T12:19:50.992Z,1128.00
2022-08-03T12:20:51.001Z,968.00
2022-08-03T12:21:56.771Z,660.00
2022-08-03T12:22:51.949Z,416.00
2022-08-03T12:23:50.960Z,444.00
2022-08-03T12:24:50.944Z,380.00
2022-08-03T12:25:50.922Z,272.00
2022-08-03T12:26:59.032Z,660.00
2022-08-03T12:27:51.893Z,1216.00
2022-08-03T12:28:50.884Z,1212.00
2022-08-03T12:29:58.165Z,1140.00
2022-08-03T12:30:51.903Z,1252.00
2022-08-03T12:31:50.863Z,856.00
2022-08-03T12:32:50.870Z,952.00
2022-08-03T12:33:50.864Z,1240.00
2022-08-03T12:34:50.843Z,1232.00
2022-08-03T12:35:52.097Z,1256.00
2022-08-03T12:36:50.798Z,1228.00
2022-08-03T12:37:50.804Z,1256.00
2022-08-03T12:38:50.814Z,1148.00
2022-08-03T12:40:02.347Z,1104.00
2022-08-03T12:40:51.795Z,964.00
2022-08-03T12:41:50.783Z,1020.00
2022-08-03T12:42:50.776Z,1068.00
2022-08-03T12:43:50.774Z,1184.00
2022-08-03T12:44:50.765Z,1196.00